Time;durP1;ratioP1;P1;durP2;ratioP2;P2;SDS_P1;SDS_P2;PMS_P1;PMS_P2;Temp;Humidity;BMP_temperature;BMP_pressure;BME280_temperature;BME280_humidity;BME280_pressure;Samples;Min_cycle;Max_cycle;Signal;HPM_P1;HPM_P2
2022/05/08 00:00:25;;;;;;;7.93;5.10;;;;;;;13.59;100.00;101565.91;5212679;28;20079;-76
2022/05/08 00:02:57;;;;;;;9.98;4.90;;;;;;;13.59;100.00;101571.16;5210088;28;20021;-75
2022/05/08 00:05:27;;;;;;;10.27;5.50;;;;;;;13.50;100.00;101568.81;5213729;28;20025;-75
2022/05/08 00:07:57;;;;;;;9.85;4.93;;;;;;;13.49;99.84;101564.47;5210707;28;20415;-76
2022/05/08 00:10:28;;;;;;;12.18;5.10;;;;;;;13.54;99.31;101559.94;5211519;28;20031;-77
2022/05/08 00:12:58;;;;;;;11.18;5.28;;;;;;;13.56;99.25;101566.84;5212100;28;20088;-76
2022/05/08 00:15:28;;;;;;;10.73;4.97;;;;;;;13.59;99.28;101565.91;5214409;28;20060;-77
2022/05/08 00:17:59;;;;;;;9.80;5.70;;;;;;;13.51;100.00;101562.66;5212230;28;20276;-77
2022/05/08 00:20:30;;;;;;;8.30;4.85;;;;;;;13.63;99.27;101573.66;5213399;28;20048;-76
2022/05/08 00:23:00;;;;;;;13.20;5.28;;;;;;;13.59;99.31;101563.28;5216284;28;20032;-77
2022/05/08 00:25:30;;;;;;;11.40;5.50;;;;;;;13.69;98.30;101560.31;5213263;28;20568;-77
2022/05/08 00:28:01;;;;;;;9.40;4.88;;;;;;;13.69;98.85;101570.81;5213065;28;20021;-77
2022/05/08 00:30:31;;;;;;;12.57;5.35;;;;;;;13.58;99.60;101565.03;5205296;28;20036;-78
2022/05/08 00:33:01;;;;;;;11.75;5.30;;;;;;;13.70;99.27;101574.28;5207910;28;20398;-77
2022/05/08 00:35:32;;;;;;;10.68;4.82;;;;;;;13.74;98.05;101574.16;5211203;28;20064;-77
2022/05/08 00:38:02;;;;;;;10.93;5.28;;;;;;;13.74;98.69;101565.41;5213857;28;20024;-77
2022/05/08 00:40:35;;;;;;;9.25;5.05;;;;;;;13.67;98.97;101569.13;5210906;28;20025;-77
2022/05/08 00:43:25;;;;;;;9.63;5.20;;;;;;;13.74;98.39;101561.00;5212484;28;20025;-77
2022/05/08 00:45:56;;;;;;;10.05;5.05;;;;;;;13.74;98.87;101562.78;5213104;28;20650;-77
2022/05/08 00:48:27;;;;;;;9.15;5.25;;;;;;;13.80;99.15;101565.22;5215197;28;20130;-77
2022/05/08 00:50:58;;;;;;;8.18;4.68;;;;;;;13.65;98.38;101558.69;5212066;28;20017;-77
2022/05/08 00:53:33;;;;;;;9.55;4.43;;;;;;;13.50;99.18;101568.81;5215352;28;20037;-77
2022/05/08 00:56:05;;;;;;;;;;;;;;;13.35;100.00;101570.16;5212686;28;20017;-75
2022/05/08 00:58:37;;;;;;;7.00;4.97;;;;;;;13.33;100.00;101565.84;5212014;28;20267;-77
2022/05/08 01:01:09;;;;;;;9.63;5.32;;;;;;;13.16;100.00;101576.00;5213335;28;20064;-77
2022/05/08 01:03:40;;;;;;;10.30;5.30;;;;;;;13.17;100.00;101560.22;5215237;28;20061;-76
2022/05/08 01:06:13;;;;;;;9.93;5.13;;;;;;;13.18;100.00;101568.94;5213657;28;20028;-76
2022/05/08 01:08:53;;;;;;;14.52;5.57;;;;;;;13.34;99.64;101570.19;5210394;28;20071;-76
2022/05/08 01:11:23;;;;;;;11.07;5.47;;;;;;;13.07;100.00;101571.91;5211186;28;20049;-77
2022/05/08 01:13:54;;;;;;;12.15;5.53;;;;;;;13.07;100.00;101576.31;5214870;28;20475;-77
2022/05/08 01:16:24;;;;;;;11.98;5.43;;;;;;;12.89;100.00;101571.56;5213554;28;20280;-77
2022/05/08 01:18:55;;;;;;;14.10;5.75;;;;;;;12.77;100.00;101577.16;5215854;28;20031;-77
2022/05/08 01:21:38;;;;;;;9.82;5.43;;;;;;;12.90;100.00;101573.28;5213549;28;20033;-76
2022/05/08 01:24:20;;;;;;;14.07;5.15;;;;;;;13.02;99.63;101578.19;5213210;28;20044;-77
2022/05/08 01:26:51;;;;;;;13.50;5.90;;;;;;;12.81;100.00;101593.69;5214282;28;20045;-77
2022/05/08 01:29:21;;;;;;;11.50;5.40;;;;;;;12.85;99.67;101584.81;5212720;28;20064;-77
2022/05/08 01:31:52;;;;;;;12.70;5.80;;;;;;;12.87;99.32;101590.88;5212417;28;20036;-77
2022/05/08 01:34:22;;;;;;;12.43;4.85;;;;;;;12.93;98.44;101594.22;5212591;28;20033;-77
2022/05/08 01:36:52;;;;;;;14.63;5.20;;;;;;;12.81;98.83;101599.75;5213660;28;20108;-76
2022/05/08 01:39:22;;;;;;;14.30;5.22;;;;;;;12.71;99.32;101598.31;5218526;28;20504;-76
2022/05/08 01:41:53;;;;;;;15.02;5.72;;;;;;;12.78;98.76;101594.59;5216269;28;20021;-76
2022/05/08 01:44:24;;;;;;;13.75;5.63;;;;;;;12.66;100.00;101607.22;5218469;28;20021;-77
2022/05/08 01:48:21;;;;;;;12.88;5.70;;;;;;;12.70;99.28;101599.22;5214619;28;20102;-76
2022/05/08 01:49:44;;;;;;;13.20;5.30;;;;;;;12.68;99.79;101600.16;5217177;28;20166;-77
2022/05/08 01:52:14;;;;;;;13.02;5.30;;;;;;;12.81;98.79;101604.16;5216857;28;20096;-77
2022/05/08 01:54:45;;;;;;;11.80;5.00;;;;;;;12.80;98.76;101600.66;5218734;28;20053;-76
2022/05/08 01:57:15;;;;;;;12.07;5.57;;;;;;;12.82;98.37;101614.59;5213601;28;20479;-77
2022/05/08 01:59:45;;;;;;;11.90;5.63;;;;;;;12.67;99.09;101619.44;5218408;28;20035;-77
2022/05/08 02:02:16;;;;;;;11.40;5.28;;;;;;;12.69;98.24;101615.88;5233134;22;20482;-78
2022/05/08 02:04:46;;;;;;;14.02;4.90;;;;;;;12.64;97.86;101622.97;5229946;28;20025;-78
2022/05/08 02:07:17;;;;;;;7.88;4.78;;;;;;;12.63;97.87;101616.00;5230490;28;20037;-78
2022/05/08 02:09:47;;;;;;;13.05;4.72;;;;;;;12.43;97.35;101622.72;5228527;28;20036;-78
2022/05/08 02:12:18;;;;;;;13.52;4.65;;;;;;;12.48;97.48;101626.91;5223840;28;20033;-78
2022/05/08 02:14:48;;;;;;;11.13;4.68;;;;;;;12.46;96.38;101626.09;5218772;28;20419;-78
2022/05/08 02:17:18;;;;;;;10.75;4.28;;;;;;;12.18;92.63;101622.50;5219304;28;20085;-78
2022/05/08 02:19:49;;;;;;;10.85;4.30;;;;;;;12.06;92.34;101633.28;5218498;28;20021;-78
2022/05/08 02:22:19;;;;;;;8.68;3.85;;;;;;;11.95;91.47;101635.28;5215629;28;20040;-77
2022/05/08 02:24:51;;;;;;;9.82;3.83;;;;;;;11.86;91.05;101638.13;5210428;28;20025;-78
2022/05/08 02:27:21;;;;;;;9.77;3.88;;;;;;;11.83;90.45;101640.84;5210406;28;20525;-77
2022/05/08 02:29:51;;;;;;;12.75;3.85;;;;;;;11.60;91.62;101643.09;5214461;28;20033;-77
2022/05/08 02:32:22;;;;;;;13.10;3.47;;;;;;;11.62;90.89;101641.31;5217093;28;20410;-77
2022/05/08 02:34:52;;;;;;;14.00;3.50;;;;;;;11.69;90.36;101649.88;5217769;28;20470;-77
2022/05/08 02:37:22;;;;;;;13.52;3.90;;;;;;;11.68;90.76;101650.78;5213874;28;20694;-78
2022/05/08 02:39:53;;;;;;;11.90;3.50;;;;;;;11.70;90.14;101649.88;5213040;28;20024;-78
2022/05/08 02:42:25;;;;;;;14.38;3.67;;;;;;;11.62;89.67;101651.78;5213126;28;20081;-78
2022/05/08 02:44:55;;;;;;;16.40;3.90;;;;;;;11.73;89.15;101648.91;5212626;28;20041;-79
2022/05/08 02:47:25;;;;;;;13.52;3.47;;;;;;;11.63;89.57;101645.66;5213426;28;20017;-79
2022/05/08 02:49:55;;;;;;;15.55;3.55;;;;;;;11.60;90.40;101650.13;5211324;28;20028;-79
2022/05/08 02:52:26;;;;;;;8.85;3.40;;;;;;;11.64;88.82;101649.97;5213068;28;20036;-79
2022/05/08 02:54:56;;;;;;;16.90;3.83;;;;;;;11.52;89.33;101647.63;5207788;28;20013;-79
2022/05/08 03:00:15;;;;;;;9.95;3.33;;;;;;;11.46;88.77;101654.75;5206125;28;20548;-78
2022/05/08 03:02:46;;;;;;;14.07;3.47;;;;;;;11.25;89.22;101658.69;5214856;28;20032;-78
2022/05/08 03:05:16;;;;;;;13.35;3.53;;;;;;;11.05;89.45;101657.38;5215475;28;20441;-77
2022/05/08 03:07:46;;;;;;;12.05;3.58;;;;;;;11.11;89.86;101655.50;5214686;28;20037;-79
2022/05/08 03:10:17;;;;;;;14.23;3.17;;;;;;;11.12;90.30;101665.06;5215259;28;20036;-79
2022/05/08 03:12:47;;;;;;;12.80;3.85;;;;;;;11.05;89.69;101657.38;5215198;28;20025;-79
2022/05/08 03:15:17;;;;;;;13.13;3.38;;;;;;;10.92;90.34;101660.25;5215152;28;20021;-79
2022/05/08 03:17:47;;;;;;;15.45;3.63;;;;;;;10.91;89.81;101655.94;5205224;28;20113;-78
2022/05/08 03:20:18;;;;;;;13.10;2.90;;;;;;;10.86;89.89;101665.63;5214462;28;20524;-78
2022/05/08 03:22:48;;;;;;;14.37;3.20;;;;;;;10.96;90.47;101661.91;5215156;28;20025;-78
2022/05/08 03:25:18;;;;;;;12.98;3.50;;;;;;;10.82;90.76;101669.19;5208436;28;20320;-79
2022/05/08 03:27:49;;;;;;;16.10;3.58;;;;;;;10.80;90.54;101676.19;5210617;28;20036;-78
2022/05/08 03:30:20;;;;;;;13.55;3.30;;;;;;;10.83;91.02;101671.75;5206858;28;20040;-78
2022/05/08 03:32:51;;;;;;;13.85;3.35;;;;;;;10.87;91.30;101672.56;5214488;28;20059;-78
2022/05/08 03:35:21;;;;;;;10.98;3.17;;;;;;;10.75;91.63;101671.06;5213978;28;20453;-79
2022/05/08 03:37:52;;;;;;;17.80;3.75;;;;;;;10.96;90.42;101680.22;5214775;28;20630;-79
2022/05/08 03:40:22;;;;;;;17.23;3.75;;;;;;;10.90;89.61;101682.97;5213489;28;20168;-78
2022/05/08 03:42:54;;;;;;;19.50;3.50;;;;;;;10.83;91.46;101676.16;5214886;28;20041;-78
2022/05/08 03:45:24;;;;;;;19.13;3.75;;;;;;;10.80;89.91;101678.78;5204947;28;20041;-78
2022/05/08 03:47:56;;;;;;;17.90;3.45;;;;;;;10.72;90.58;101678.94;5207280;28;20080;-78
2022/05/08 03:50:27;;;;;;;15.18;3.03;;;;;;;10.72;90.61;101688.56;5213726;28;20538;-78
2022/05/08 03:52:59;;;;;;;15.35;3.33;;;;;;;10.87;90.18;101683.03;5216070;28;20043;-78
2022/05/08 03:55:29;;;;;;;17.42;3.55;;;;;;;10.86;89.99;101684.78;5189219;28;20028;-78
2022/05/08 03:57:59;;;;;;;17.73;3.20;;;;;;;10.81;88.92;101683.13;5214438;28;20461;-78
2022/05/08 04:00:30;;;;;;;11.60;2.97;;;;;;;10.91;89.09;101682.97;5210106;28;20021;-78
2022/05/08 04:03:01;;;;;;;13.95;3.20;;;;;;;10.97;89.09;101684.56;5219446;28;20029;-78
2022/05/08 04:05:31;;;;;;;13.77;3.38;;;;;;;10.94;88.96;101687.25;5207477;28;20083;-78
2022/05/08 04:08:01;;;;;;;15.50;3.30;;;;;;;10.81;88.99;101696.22;5218745;28;20024;-78
2022/05/08 04:10:33;;;;;;;18.88;2.90;;;;;;;10.89;88.60;101694.31;5213613;28;20025;-78
2022/05/08 04:13:03;;;;;;;14.82;3.58;;;;;;;10.91;88.18;101695.16;5209697;28;20549;-78
2022/05/08 04:18:26;;;;;;;16.95;3.38;;;;;;;11.08;87.71;101699.19;5219843;28;20235;-78
2022/05/08 04:20:57;;;;;;;21.73;3.60;;;;;;;10.68;88.34;101700.81;5196112;28;20068;-78
2022/05/08 04:26:16;;;;;;;16.15;3.30;;;;;;;11.02;88.22;101708.91;5206196;28;20103;-78
2022/05/08 04:28:46;;;;;;;13.15;2.92;;;;;;;10.90;88.83;101703.91;5208990;28;20029;-78
2022/05/08 04:31:16;;;;;;;16.75;2.90;;;;;;;11.24;86.75;101695.38;5208779;28;20108;-78
2022/05/08 04:33:47;;;;;;;14.38;3.15;;;;;;;11.38;86.52;101709.00;5213515;28;20029;-78
2022/05/08 04:36:18;;;;;;;16.50;2.75;;;;;;;11.36;86.35;101708.19;5203854;28;20056;-78
2022/05/08 04:38:48;;;;;;;15.35;3.20;;;;;;;11.48;85.64;101705.31;5219362;28;20033;-78
2022/05/08 04:41:19;;;;;;;13.88;2.72;;;;;;;11.85;84.07;101706.28;5208890;28;20036;-78
2022/05/08 04:43:49;;;;;;;14.18;3.42;;;;;;;13.05;79.58;101709.34;5219732;28;20061;-78
2022/05/08 04:46:19;;;;;;;14.57;3.30;;;;;;;13.24;78.01;101702.69;5219148;28;20033;-78
2022/05/08 04:48:49;;;;;;;17.03;2.80;;;;;;;14.51;73.10;101697.78;5219967;28;20048;-79
2022/05/08 04:51:23;;;;;;;16.30;3.07;;;;;;;15.86;69.95;101696.31;5219342;28;20799;-79
2022/05/08 04:53:58;;;;;;;10.27;2.63;;;;;;;16.60;67.33;101695.00;5219648;28;20629;-79
2022/05/08 04:56:30;;;;;;;14.97;2.87;;;;;;;16.79;64.58;101696.78;5214057;28;20021;-79
2022/05/08 04:59:00;;;;;;;14.38;2.97;;;;;;;17.25;63.87;101690.31;5217684;28;20279;-78
2022/05/08 05:01:30;;;;;;;10.80;2.72;;;;;;;18.57;61.28;101686.59;5214861;28;20040;-79
2022/05/08 05:04:01;;;;;;;9.93;2.60;;;;;;;18.93;59.51;101691.69;5213081;28;20025;-79
2022/05/08 05:06:32;;;;;;;11.65;2.88;;;;;;;18.36;59.76;101685.03;5220103;28;20358;-79
2022/05/08 05:09:02;;;;;;;10.00;2.53;;;;;;;19.11;59.31;101693.38;5222839;28;20039;-79
2022/05/08 05:11:32;;;;;;;13.45;2.50;;;;;;;19.53;57.43;101699.09;5213132;28;20060;-79
2022/05/08 05:14:03;;;;;;;14.65;2.85;;;;;;;19.75;57.36;101709.38;5219681;28;20033;-79
2022/05/08 05:16:33;;;;;;;13.00;2.72;;;;;;;19.17;58.77;101706.38;5216685;28;20036;-79
2022/05/08 05:19:04;;;;;;;10.30;2.83;;;;;;;19.50;57.42;101714.31;5221400;28;20086;-79
2022/05/08 05:21:34;;;;;;;12.25;2.50;;;;;;;19.76;57.10;101717.25;5216409;28;20025;-79
2022/05/08 05:24:05;;;;;;;11.63;2.70;;;;;;;19.69;57.33;101717.66;5211995;28;20053;-78
2022/05/08 05:26:35;;;;;;;15.93;3.28;;;;;;;19.45;57.31;101722.50;5187804;28;20280;-79
2022/05/08 05:29:05;;;;;;;13.30;2.87;;;;;;;21.12;55.00;101716.34;5208663;28;20694;-79
2022/05/08 05:31:36;;;;;;;12.97;3.10;;;;;;;21.33;54.07;101720.34;5204437;28;20280;-79
2022/05/08 05:34:06;;;;;;;11.50;2.40;;;;;;;20.88;53.21;101731.13;5213821;28;20299;-79
2022/05/08 05:36:36;;;;;;;12.55;3.08;;;;;;;22.32;52.55;101724.59;5210063;28;20276;-79
2022/05/08 05:39:07;;;;;;;13.03;2.80;;;;;;;21.79;52.17;101730.75;5217851;28;20016;-79
2022/05/08 05:41:37;;;;;;;9.60;2.58;;;;;;;21.53;51.01;101727.94;5212778;28;20271;-79
2022/05/08 05:44:07;;;;;;;10.77;2.67;;;;;;;20.90;53.16;101734.53;5220000;28;20034;-79
2022/05/08 05:49:27;;;;;;;11.52;2.35;;;;;;;21.78;51.88;101736.16;5221796;28;20039;-79
2022/05/08 05:51:57;;;;;;;11.55;2.50;;;;;;;21.78;51.79;101736.97;5218711;28;20029;-79
2022/05/08 05:54:28;;;;;;;9.50;2.60;;;;;;;22.26;50.34;101743.66;5218641;28;20033;-79
2022/05/08 05:56:58;;;;;;;12.63;2.60;;;;;;;20.63;52.72;101760.03;5216051;28;20029;-79
2022/05/08 05:59:29;;;;;;;10.40;2.55;;;;;;;19.50;55.86;101759.41;5212840;28;20036;-79
2022/05/08 06:01:59;;;;;;;8.70;2.28;;;;;;;20.60;54.02;101760.22;5218093;28;20538;-79
2022/05/08 06:04:30;;;;;;;12.33;2.60;;;;;;;19.64;54.97;101756.88;5208634;28;20120;-79
2022/05/08 06:07:00;;;;;;;11.80;2.55;;;;;;;20.02;54.79;101763.59;5220266;28;20600;-79
2022/05/08 06:09:30;;;;;;;14.25;2.60;;;;;;;20.10;54.20;101767.56;5216949;28;20030;-79
2022/05/08 06:12:00;;;;;;;8.40;2.47;;;;;;;18.99;55.52;101762.97;5210575;28;20086;-78
2022/05/08 06:14:31;;;;;;;11.25;2.45;;;;;;;19.13;55.87;101762.22;5218966;28;20060;-79
2022/05/08 06:17:02;;;;;;;9.30;2.47;;;;;;;18.99;56.45;101756.78;5221346;28;20029;-79
2022/05/08 06:19:32;;;;;;;11.85;2.30;;;;;;;18.64;57.42;101762.13;5219263;28;20022;-79
2022/05/08 06:22:02;;;;;;;12.45;2.50;;;;;;;18.60;58.20;101768.53;5194950;28;20036;-79
2022/05/08 06:24:34;;;;;;;13.05;2.70;;;;;;;17.95;58.60;101768.16;5220072;28;20052;-79
2022/05/08 06:27:05;;;;;;;8.70;2.17;;;;;;;17.37;60.85;101774.38;5212745;28;20049;-78
2022/05/08 06:29:36;;;;;;;8.80;2.22;;;;;;;17.75;59.34;101777.03;5213984;28;20060;-79
2022/05/08 06:32:07;;;;;;;10.38;2.30;;;;;;;17.76;59.86;101772.56;5216883;28;20104;-78
2022/05/08 06:34:37;;;;;;;12.52;2.20;;;;;;;17.65;59.64;101772.22;5213169;28;20029;-78
2022/05/08 06:37:07;;;;;;;11.77;2.45;;;;;;;17.86;59.43;101764.16;5213629;28;20062;-78
2022/05/08 06:39:38;;;;;;;13.93;2.28;;;;;;;18.60;56.42;101763.22;5216163;28;20042;-78
2022/05/08 06:42:09;;;;;;;12.23;2.60;;;;;;;18.96;57.11;101762.25;5218990;28;20048;-78
2022/05/08 06:44:39;;;;;;;9.10;2.40;;;;;;;18.22;56.85;101761.56;5212421;28;20063;-78
2022/05/08 06:47:10;;;;;;;10.05;2.30;;;;;;;19.91;55.18;101756.22;5221698;28;20040;-79
2022/05/08 06:49:40;;;;;;;9.70;2.20;;;;;;;20.32;54.23;101765.41;5222482;28;20061;-78
2022/05/08 06:52:10;;;;;;;10.75;2.67;;;;;;;20.75;53.71;101762.84;5212582;28;20021;-78
2022/05/08 06:54:41;;;;;;;7.97;2.00;;;;;;;20.34;51.55;101768.84;5202076;28;20083;-78
2022/05/08 06:57:12;;;;;;;9.73;2.30;;;;;;;21.80;50.92;101760.84;5219191;28;20029;-79
2022/05/08 07:02:31;;;;;;;12.20;2.50;;;;;;;22.32;49.02;101764.56;5221878;28;20120;-78
2022/05/08 07:05:01;;;;;;;8.40;2.10;;;;;;;21.38;51.53;101764.34;5221633;28;20041;-79
2022/05/08 07:07:32;;;;;;;10.13;2.40;;;;;;;23.05;49.02;101759.59;5227604;28;20279;-78
2022/05/08 07:10:03;;;;;;;8.88;2.00;;;;;;;22.82;48.36;101758.47;5221274;28;20283;-79
2022/05/08 07:12:36;;;;;;;9.60;1.98;;;;;;;23.04;48.52;101761.38;5218134;28;20522;-78
2022/05/08 07:15:07;;;;;;;11.00;2.75;;;;;;;23.04;47.63;101763.22;5225323;28;20036;-79
2022/05/08 07:17:37;;;;;;;6.13;1.85;;;;;;;24.85;46.82;101763.31;5221327;28;20025;-79
2022/05/08 07:20:08;;;;;;;6.80;1.95;;;;;;;24.64;45.74;101762.28;5214154;28;20025;-78
2022/05/08 07:22:39;;;;;;;12.30;3.10;;;;;;;23.53;47.52;101759.75;5219033;28;20064;-78
2022/05/08 07:25:12;;;;;;;8.60;2.17;;;;;;;24.95;45.35;101756.31;5218555;28;20036;-79
2022/05/08 07:27:42;;;;;;;8.05;2.13;;;;;;;24.07;45.97;101750.47;5220176;28;20060;-79
2022/05/08 07:30:13;;;;;;;10.02;2.28;;;;;;;23.52;46.71;101754.53;5216670;28;20026;-78
2022/05/08 07:32:44;;;;;;;10.55;2.17;;;;;;;24.78;44.98;101752.22;5223980;28;20037;-79
2022/05/08 07:38:21;;;;;;;11.95;2.67;;;;;;;24.38;44.49;101759.81;5189238;28;20041;-79
2022/05/08 07:40:51;;;;;;;9.00;2.25;;;;;;;26.45;43.35;101753.06;5227663;28;20080;-79
2022/05/08 07:43:22;;;;;;;7.83;1.90;;;;;;;24.21;44.44;101761.03;5225164;28;20187;-79
2022/05/08 07:45:52;;;;;;;8.15;2.38;;;;;;;22.67;48.26;101764.00;5228529;28;20296;-79
2022/05/08 07:48:23;;;;;;;9.70;2.05;;;;;;;22.55;48.15;101772.78;5222236;28;20029;-79
2022/05/08 07:50:53;;;;;;;10.47;2.37;;;;;;;22.34;48.57;101762.66;5222091;28;20048;-79
2022/05/08 07:53:23;;;;;;;7.13;1.90;;;;;;;23.02;47.01;101763.31;5223417;28;20055;-79
2022/05/08 07:55:54;;;;;;;11.03;2.30;;;;;;;22.92;47.39;101762.25;5217130;28;20146;-78
2022/05/08 07:58:28;;;;;;;10.02;2.55;;;;;;;22.89;47.54;101761.59;5216661;28;20271;-78
2022/05/08 08:00:59;;;;;;;9.85;2.45;;;;;;;21.59;48.41;101767.50;5214896;28;20438;-79
2022/05/08 08:03:32;;;;;;;12.23;2.65;;;;;;;21.80;49.13;101766.19;5258636;23;20047;-80
2022/05/08 08:06:02;;;;;;;12.13;2.13;;;;;;;22.09;49.00;101770.53;5254608;28;20021;-79
2022/05/08 08:08:33;;;;;;;9.07;2.20;;;;;;;22.50;48.11;101764.25;5250012;28;20055;-79
2022/05/08 08:11:04;;;;;;;9.00;2.27;;;;;;;22.65;47.13;101763.25;5255387;28;20032;-79
2022/05/08 08:13:36;;;;;;;8.00;2.15;;;;;;;25.68;44.29;101747.78;5257938;28;20279;-79
2022/05/08 08:16:07;;;;;;;8.02;1.80;;;;;;;24.29;45.24;101768.47;5255354;28;20110;-80
2022/05/08 08:18:38;;;;;;;6.93;1.92;;;;;;;20.98;48.16;101769.50;5258652;28;20628;-80
2022/05/08 08:21:13;;;;;;;7.03;2.10;;;;;;;22.67;45.96;101766.66;5253857;28;20024;-80
2022/05/08 08:23:44;;;;;;;7.87;2.07;;;;;;;24.01;45.53;101764.28;5255037;28;20028;-80
2022/05/08 08:26:14;;;;;;;6.20;1.60;;;;;;;24.96;44.60;101764.22;5272097;28;20084;-81
2022/05/08 08:28:45;;;;;;;8.23;1.42;;;;;;;25.85;41.93;101758.06;5267917;28;20452;-80
2022/05/08 08:31:15;;;;;;;7.73;1.83;;;;;;;23.69;43.63;101776.38;5263240;28;20036;-80
2022/05/08 08:33:46;;;;;;;10.10;1.92;;;;;;;24.25;43.93;101773.19;5264036;28;20267;-80
2022/05/08 08:36:16;;;;;;;6.90;1.75;;;;;;;25.10;42.87;101760.47;5255739;28;20044;-80
2022/05/08 08:38:46;;;;;;;6.30;1.50;;;;;;;25.76;40.06;101765.94;5259335;28;20028;-81
2022/05/08 08:41:21;;;;;;;6.07;1.77;;;;;;;25.63;42.03;101762.56;5259515;28;20044;-78
2022/05/08 08:49:42;;;;;;;7.82;1.83;;;;;;;21.58;48.09;101787.06;5254367;28;20035;-80
2022/05/08 08:52:14;;;;;;;9.02;2.05;;;;;;;20.80;48.27;101794.47;5254396;28;20037;-81
2022/05/08 08:54:44;;;;;;;6.95;1.67;;;;;;;18.69;51.73;101797.22;5262709;28;20035;-79
2022/05/08 08:57:14;;;;;;;5.10;1.40;;;;;;;19.58;50.60;101784.56;5266603;28;20132;-79
2022/05/08 08:59:45;;;;;;;6.80;1.37;;;;;;;18.83;52.64;101798.25;5254072;28;20093;-79
2022/05/08 09:02:16;;;;;;;7.35;1.40;;;;;;;17.55;52.51;101800.88;5252650;28;20281;-79
2022/05/08 09:04:51;;;;;;;8.82;1.85;;;;;;;17.84;52.94;101800.41;5253728;28;20036;-80
2022/05/08 09:07:34;;;;;;;6.70;1.70;;;;;;;17.90;53.55;101804.56;5260859;28;20040;-79
2022/05/08 09:10:08;;;;;;;9.35;1.80;;;;;;;17.85;52.92;101804.75;5257642;28;20277;-79
2022/05/08 09:12:41;;;;;;;6.75;1.55;;;;;;;18.12;51.95;101807.91;5252646;28;20051;-79
2022/05/08 09:15:29;;;;;;;7.68;2.17;;;;;;;18.23;51.96;101798.56;5252911;28;20048;-79
2022/05/08 09:18:02;;;;;;;7.82;1.70;;;;;;;18.34;51.18;101806.03;5251660;28;20016;-80
2022/05/08 09:20:36;;;;;;;5.40;1.65;;;;;;;17.92;51.63;101802.69;5251479;28;20025;-79
2022/05/08 09:23:11;;;;;;;5.72;1.38;;;;;;;18.50;50.11;101793.75;5253139;28;20031;-79
2022/05/08 09:25:57;;;;;;;6.57;1.40;;;;;;;18.70;48.55;101797.13;5266720;28;20040;-79
2022/05/08 09:28:44;;;;;;;8.73;1.60;;;;;;;17.91;50.79;101798.31;5255818;28;20020;-79
2022/05/08 09:31:16;;;;;;;8.13;1.60;;;;;;;18.45;50.31;101795.75;5249491;28;20049;-79
2022/05/08 09:33:48;;;;;;;9.63;1.95;;;;;;;18.53;50.04;101797.09;5251754;28;20040;-79
2022/05/08 09:36:24;;;;;;;7.68;1.40;;;;;;;18.69;50.45;101799.88;5256048;28;20016;-79
2022/05/08 09:38:58;;;;;;;6.50;1.40;;;;;;;18.68;50.32;101800.81;5260609;28;20028;-79
2022/05/08 09:41:39;;;;;;;8.37;1.43;;;;;;;18.97;49.58;101791.28;5251399;28;20040;-79
2022/05/08 09:44:12;;;;;;;5.93;1.52;;;;;;;18.29;49.81;101803.59;5250868;28;20032;-79
2022/05/08 09:46:44;;;;;;;6.50;1.20;;;;;;;19.01;51.05;101792.88;5247893;28;20044;-79
2022/05/08 09:49:23;;;;;;;5.57;1.63;;;;;;;18.74;49.74;101788.13;5251403;28;20020;-79
2022/05/08 09:51:54;;;;;;;4.63;1.35;;;;;;;19.12;49.16;101793.16;5247304;28;20032;-80
2022/05/08 09:54:26;;;;;;;7.53;1.40;;;;;;;18.99;49.36;101789.47;5250954;28;20023;-79
2022/05/08 09:56:59;;;;;;;4.95;1.42;;;;;;;19.33;48.62;101788.59;5254225;28;20149;-79
2022/05/08 09:59:30;;;;;;;6.30;1.65;;;;;;;19.29;48.60;101785.25;5245478;28;20021;-79
2022/05/08 10:02:03;;;;;;;5.97;1.48;;;;;;;17.76;49.43;101791.97;5246487;28;20035;-79
2022/05/08 10:04:35;;;;;;;6.97;1.52;;;;;;;18.74;49.37;101788.13;5241844;28;20066;-79
2022/05/08 10:07:05;;;;;;;11.65;3.55;;;;;;;19.30;49.16;101779.00;5254440;28;20084;-79
2022/05/08 10:15:18;;;;;;;5.22;1.48;;;;;;;18.66;49.57;101776.19;5244380;28;20078;-79
2022/05/08 10:17:48;;;;;;;6.03;1.48;;;;;;;18.64;48.44;101780.66;5249527;28;20134;-79
2022/05/08 10:20:57;;;;;;;6.45;1.73;;;;;;;19.10;48.88;101787.09;5250241;28;20469;-79
2022/05/08 10:23:41;;;;;;;5.63;1.40;;;;;;;18.97;48.24;101780.69;5247876;28;20029;-79
2022/05/08 10:26:18;;;;;;;7.03;1.50;;;;;;;18.80;47.97;101785.16;5263014;28;20124;-79
2022/05/08 10:29:04;;;;;;;7.53;1.52;;;;;;;18.87;48.85;101784.75;5250843;28;20024;-79
2022/05/08 10:31:53;;;;;;;5.97;1.40;;;;;;;18.53;46.57;101785.66;5246389;28;20025;-79
2022/05/08 10:34:31;;;;;;;6.65;1.65;;;;;;;18.46;49.52;101776.28;5251037;28;20433;-79
2022/05/08 10:37:11;;;;;;;4.85;1.45;;;;;;;18.05;48.65;101785.31;5262857;28;20032;-79
2022/05/08 10:39:43;;;;;;;5.72;1.50;;;;;;;18.05;49.14;101780.91;5261546;28;20058;-78
2022/05/08 10:42:29;;;;;;;8.32;1.70;;;;;;;18.57;52.10;101785.44;5250862;28;20032;-79
2022/05/08 10:45:00;;;;;;;7.25;1.77;;;;;;;18.65;50.91;101780.59;5250628;28;20382;-79
2022/05/08 10:47:33;;;;;;;8.75;1.80;;;;;;;18.95;50.61;101781.72;5253158;28;20028;-79
2022/05/08 10:50:08;;;;;;;6.90;1.58;;;;;;;18.72;49.53;101775.88;5249419;28;20020;-79
2022/05/08 10:52:44;;;;;;;5.60;1.50;;;;;;;18.16;49.68;101785.69;5249493;28;20115;-79
2022/05/08 10:55:15;;;;;;;7.78;1.80;;;;;;;17.97;50.02;101779.53;5251795;28;20086;-79
2022/05/08 10:57:47;;;;;;;7.28;1.45;;;;;;;18.11;50.92;101779.72;5255221;28;20043;-79
2022/05/08 11:00:19;;;;;;;6.93;1.98;;;;;;;18.35;51.97;101781.25;5253013;28;20399;-79
2022/05/08 11:03:00;;;;;;;6.30;1.58;;;;;;;18.20;51.77;101782.78;5251951;28;20111;-79
2022/05/08 11:05:33;;;;;;;8.52;1.77;;;;;;;18.51;51.29;101776.94;5249612;28;20043;-79
2022/05/08 11:08:05;;;;;;;9.77;1.80;;;;;;;18.86;50.68;101769.81;5256443;28;20056;-79
2022/05/08 11:10:42;;;;;;;7.45;1.90;;;;;;;18.60;51.19;101774.69;5255787;28;20043;-79
2022/05/08 11:13:15;;;;;;;6.60;1.55;;;;;;;18.46;51.61;101777.16;5249408;28;20024;-79
2022/05/08 11:15:50;;;;;;;8.80;1.80;;;;;;;18.60;50.77;101773.81;5252314;28;20541;-79
2022/05/08 11:18:23;;;;;;;7.13;1.42;;;;;;;18.36;49.64;101769.72;5251344;28;20070;-78
2022/05/08 11:21:02;;;;;;;4.85;1.50;;;;;;;18.48;49.25;101774.44;5254850;28;20111;-79
2022/05/08 11:23:41;;;;;;;5.38;1.70;;;;;;;18.48;48.45;101770.00;5251004;28;20027;-78
2022/05/08 11:26:12;;;;;;;8.38;1.50;;;;;;;18.76;49.67;101765.06;5263108;28;20051;-79
2022/05/08 11:28:51;;;;;;;7.07;1.48;;;;;;;18.94;50.12;101770.25;5257215;28;20247;-79
2022/05/08 11:31:24;;;;;;;4.85;1.58;;;;;;;18.63;49.86;101768.38;5253940;28;20147;-79
2022/05/08 11:36:45;;;;;;;9.85;2.00;;;;;;;18.47;50.08;101762.09;5257773;28;20035;-79
2022/05/08 11:39:17;;;;;;;9.95;1.52;;;;;;;18.58;50.89;101758.03;5269320;28;20080;-79
2022/05/08 11:41:49;;;;;;;5.43;1.55;;;;;;;18.64;49.55;101762.13;5253745;28;20518;-78
2022/05/08 11:44:24;;;;;;;7.30;1.55;;;;;;;18.54;49.14;101767.03;5252995;28;20618;-78
2022/05/08 11:46:56;;;;;;;6.75;1.58;;;;;;;18.47;49.66;101764.75;5252207;28;20073;-78
2022/05/08 11:49:31;;;;;;;5.18;1.20;;;;;;;18.55;50.05;101766.09;5253930;28;20055;-79
2022/05/08 11:52:06;;;;;;;14.27;1.90;;;;;;;18.42;49.69;101759.72;5256637;28;20020;-79
2022/05/08 11:54:38;;;;;;;16.73;7.80;;;;;;;18.66;51.20;101752.34;5255255;28;20275;-79
2022/05/08 11:57:10;;;;;;;5.28;1.50;;;;;;;18.75;50.86;101753.59;5254356;28;20417;-78
2022/05/08 11:59:43;;;;;;;8.15;1.83;;;;;;;18.70;49.75;101753.91;5253872;28;20096;-79
2022/05/08 12:02:14;;;;;;;4.22;1.25;;;;;;;18.36;47.68;101753.84;5256091;28;20024;-79
2022/05/08 12:04:55;;;;;;;5.82;1.50;;;;;;;18.46;49.30;101752.44;5255286;28;20062;-79
2022/05/08 12:07:25;;;;;;;4.75;1.20;;;;;;;18.34;46.78;101750.44;5260004;28;20593;-78
2022/05/08 12:09:56;;;;;;;3.95;1.20;;;;;;;18.08;47.33;101748.13;5259873;28;20052;-79
2022/05/08 12:12:29;;;;;;;4.85;1.70;;;;;;;18.06;47.18;101757.94;5256631;28;20324;-79
2022/05/08 12:15:06;;;;;;;5.80;1.30;;;;;;;18.04;47.50;101752.69;5255701;28;20019;-78